sensor_id;sensor_type;location;lat;lon;timestamp;pressure;altitude;pressure_sealevel;temperature;humidity
51031;BME280;37058;41.442;23.240;2023-04-07T00:01:09;100371.78;;;7.78;47.56
51031;BME280;37058;41.442;23.240;2023-04-07T00:03:35;100373.91;;;7.65;47.02
51031;BME280;37058;41.442;23.240;2023-04-07T00:06:03;100370.56;;;7.63;47.01
51031;BME280;37058;41.442;23.240;2023-04-07T00:08:29;100370.31;;;7.52;47.01
51031;BME280;37058;41.442;23.240;2023-04-07T00:10:54;100374.78;;;7.47;46.66
51031;BME280;37058;41.442;23.240;2023-04-07T00:13:20;100381.97;;;7.41;46.51
51031;BME280;37058;41.442;23.240;2023-04-07T00:15:46;100398.53;;;7.40;46.63
51031;BME280;37058;41.442;23.240;2023-04-07T00:18:12;100383.97;;;7.34;46.80
51031;BME280;37058;41.442;23.240;2023-04-07T00:20:38;100386.66;;;7.22;46.87
51031;BME280;37058;41.442;23.240;2023-04-07T00:23:04;100389.69;;;7.14;46.82
51031;BME280;37058;41.442;23.240;2023-04-07T00:25:30;100382.75;;;7.18;46.93
51031;BME280;37058;41.442;23.240;2023-04-07T00:27:56;100384.25;;;7.14;46.97
51031;BME280;37058;41.442;23.240;2023-04-07T00:30:21;100389.31;;;7.10;47.26
51031;BME280;37058;41.442;23.240;2023-04-07T00:32:47;100391.78;;;7.00;47.08
51031;BME280;37058;41.442;23.240;2023-04-07T00:35:13;100384.41;;;6.89;46.79
51031;BME280;37058;41.442;23.240;2023-04-07T00:37:39;100386.06;;;6.90;47.65
51031;BME280;37058;41.442;23.240;2023-04-07T00:40:06;100393.75;;;6.93;47.37
51031;BME280;37058;41.442;23.240;2023-04-07T00:42:32;100388.16;;;6.88;47.02
51031;BME280;37058;41.442;23.240;2023-04-07T00:44:59;100382.84;;;6.81;47.57
51031;BME280;37058;41.442;23.240;2023-04-07T00:47:25;100384.13;;;6.79;47.78
51031;BME280;37058;41.442;23.240;2023-04-07T00:49:51;100398.00;;;6.70;47.61
51031;BME280;37058;41.442;23.240;2023-04-07T00:52:18;100396.34;;;6.69;48.27
51031;BME280;37058;41.442;23.240;2023-04-07T00:54:53;100402.66;;;6.63;48.16
51031;BME280;37058;41.442;23.240;2023-04-07T00:57:21;100406.09;;;6.59;48.77
51031;BME280;37058;41.442;23.240;2023-04-07T00:59:51;100407.38;;;6.56;49.23
51031;BME280;37058;41.442;23.240;2023-04-07T01:05:22;100411.06;;;6.62;49.46
51031;BME280;37058;41.442;23.240;2023-04-07T01:08:15;100410.66;;;6.58;49.80
51031;BME280;37058;41.442;23.240;2023-04-07T01:13:31;100409.47;;;6.54;49.64
51031;BME280;37058;41.442;23.240;2023-04-07T01:16:03;100413.78;;;6.43;50.12
51031;BME280;37058;41.442;23.240;2023-04-07T01:18:35;100412.69;;;6.44;50.14
51031;BME280;37058;41.442;23.240;2023-04-07T01:21:14;100415.72;;;6.36;50.13
51031;BME280;37058;41.442;23.240;2023-04-07T01:26:27;100420.16;;;6.49;50.11
51031;BME280;37058;41.442;23.240;2023-04-07T01:31:59;100418.28;;;6.49;49.77
51031;BME280;37058;41.442;23.240;2023-04-07T01:34:27;100426.22;;;6.51;50.33
51031;BME280;37058;41.442;23.240;2023-04-07T01:36:54;100422.44;;;6.52;50.18
51031;BME280;37058;41.442;23.240;2023-04-07T01:39:22;100418.94;;;6.45;50.27
51031;BME280;37058;41.442;23.240;2023-04-07T01:41:49;100428.78;;;6.46;50.67
51031;BME280;37058;41.442;23.240;2023-04-07T01:44:18;100415.47;;;6.38;50.59
51031;BME280;37058;41.442;23.240;2023-04-07T01:46:45;100424.31;;;6.33;50.45
51031;BME280;37058;41.442;23.240;2023-04-07T01:49:12;100415.78;;;6.29;50.74
51031;BME280;37058;41.442;23.240;2023-04-07T01:51:39;100420.84;;;6.26;50.85
51031;BME280;37058;41.442;23.240;2023-04-07T01:54:06;100419.00;;;6.20;51.23
51031;BME280;37058;41.442;23.240;2023-04-07T01:56:33;100415.69;;;6.18;51.35
51031;BME280;37058;41.442;23.240;2023-04-07T01:58:59;100415.31;;;6.14;51.61
51031;BME280;37058;41.442;23.240;2023-04-07T02:01:25;100417.84;;;6.09;51.75
51031;BME280;37058;41.442;23.240;2023-04-07T02:06:26;100418.31;;;6.06;52.10
51031;BME280;37058;41.442;23.240;2023-04-07T02:09:01;100412.28;;;6.04;52.41
51031;BME280;37058;41.442;23.240;2023-04-07T02:11:32;100407.34;;;5.94;52.72
51031;BME280;37058;41.442;23.240;2023-04-07T02:14:00;100416.91;;;5.97;52.72
51031;BME280;37058;41.442;23.240;2023-04-07T02:16:30;100419.50;;;5.85;53.27
51031;BME280;37058;41.442;23.240;2023-04-07T02:18:57;100418.91;;;5.83;53.20
51031;BME280;37058;41.442;23.240;2023-04-07T02:21:25;100416.41;;;5.81;52.91
51031;BME280;37058;41.442;23.240;2023-04-07T02:23:52;100425.59;;;5.80;52.74
51031;BME280;37058;41.442;23.240;2023-04-07T02:26:18;100420.00;;;5.75;52.79
51031;BME280;37058;41.442;23.240;2023-04-07T02:28:43;100420.66;;;5.71;53.33
51031;BME280;37058;41.442;23.240;2023-04-07T02:31:09;100419.22;;;5.68;52.89
51031;BME280;37058;41.442;23.240;2023-04-07T02:33:38;100425.34;;;5.57;53.50
51031;BME280;37058;41.442;23.240;2023-04-07T02:36:04;100419.16;;;5.50;54.82
51031;BME280;37058;41.442;23.240;2023-04-07T02:38:31;100421.75;;;5.31;55.43
51031;BME280;37058;41.442;23.240;2023-04-07T02:40:57;100424.28;;;5.26;55.60
51031;BME280;37058;41.442;23.240;2023-04-07T02:43:24;100419.53;;;5.21;55.24
51031;BME280;37058;41.442;23.240;2023-04-07T02:45:50;100420.38;;;5.22;54.59
51031;BME280;37058;41.442;23.240;2023-04-07T02:48:16;100423.94;;;5.16;55.15
51031;BME280;37058;41.442;23.240;2023-04-07T02:50:42;100419.41;;;5.10;55.22
51031;BME280;37058;41.442;23.240;2023-04-07T02:53:08;100425.63;;;5.10;55.35
51031;BME280;37058;41.442;23.240;2023-04-07T02:55:34;100425.66;;;5.04;55.49
51031;BME280;37058;41.442;23.240;2023-04-07T02:58:00;100423.22;;;4.95;56.15
51031;BME280;37058;41.442;23.240;2023-04-07T03:00:26;100433.72;;;4.78;56.63
51031;BME280;37058;41.442;23.240;2023-04-07T03:02:52;100427.06;;;4.68;57.00
51031;BME280;37058;41.442;23.240;2023-04-07T03:05:18;100438.50;;;4.70;56.68
51031;BME280;37058;41.442;23.240;2023-04-07T03:07:44;100427.31;;;4.66;56.53
51031;BME280;37058;41.442;23.240;2023-04-07T03:10:10;100430.59;;;4.68;56.50
51031;BME280;37058;41.442;23.240;2023-04-07T03:12:36;100440.78;;;4.73;56.48
51031;BME280;37058;41.442;23.240;2023-04-07T03:15:02;100437.06;;;4.74;56.08
51031;BME280;37058;41.442;23.240;2023-04-07T03:17:28;100442.47;;;4.67;56.87
51031;BME280;37058;41.442;23.240;2023-04-07T03:19:54;100439.38;;;4.64;57.00
51031;BME280;37058;41.442;23.240;2023-04-07T03:22:20;100445.59;;;4.64;56.99
51031;BME280;37058;41.442;23.240;2023-04-07T03:24:45;100444.59;;;4.59;56.28
51031;BME280;37058;41.442;23.240;2023-04-07T03:27:11;100448.31;;;4.57;56.70
51031;BME280;37058;41.442;23.240;2023-04-07T03:29:37;100446.25;;;4.53;57.30
51031;BME280;37058;41.442;23.240;2023-04-07T03:32:03;100456.69;;;4.43;58.28
51031;BME280;37058;41.442;23.240;2023-04-07T03:34:29;100452.97;;;4.30;58.80
51031;BME280;37058;41.442;23.240;2023-04-07T03:36:55;100458.38;;;4.24;58.81
51031;BME280;37058;41.442;23.240;2023-04-07T03:39:20;100460.47;;;4.22;59.64
51031;BME280;37058;41.442;23.240;2023-04-07T03:41:47;100459.22;;;4.18;nan
51031;BME280;37058;41.442;23.240;2023-04-07T03:44:13;100458.59;;;4.22;59.52
51031;BME280;37058;41.442;23.240;2023-04-07T03:46:39;100461.53;;;4.21;59.76
51031;BME280;37058;41.442;23.240;2023-04-07T03:49:05;100464.84;;;4.16;60.01
51031;BME280;37058;41.442;23.240;2023-04-07T03:51:31;100464.44;;;3.99;60.79
51031;BME280;37058;41.442;23.240;2023-04-07T03:53:58;100472.97;;;4.03;60.36
51031;BME280;37058;41.442;23.240;2023-04-07T03:56:25;100473.19;;;4.08;60.06
51031;BME280;37058;41.442;23.240;2023-04-07T03:58:51;100478.97;;;4.11;59.70
51031;BME280;37058;41.442;23.240;2023-04-07T04:01:16;100481.47;;;4.06;59.91
51031;BME280;37058;41.442;23.240;2023-04-07T04:03:42;100475.88;;;4.01;59.51
51031;BME280;37058;41.442;23.240;2023-04-07T04:06:08;100478.56;;;4.01;60.03
51031;BME280;37058;41.442;23.240;2023-04-07T04:08:34;100472.97;;;3.96;60.14
51031;BME280;37058;41.442;23.240;2023-04-07T04:11:00;100474.63;;;3.90;60.59
51031;BME280;37058;41.442;23.240;2023-04-07T04:13:26;100483.56;;;3.91;61.25
51031;BME280;37058;41.442;23.240;2023-04-07T04:15:52;100490.41;;;3.87;61.70
51031;BME280;37058;41.442;23.240;2023-04-07T04:18:17;100485.44;;;3.90;61.75
51031;BME280;37058;41.442;23.240;2023-04-07T04:20:43;100491.84;;;3.76;63.13
51031;BME280;37058;41.442;23.240;2023-04-07T04:23:09;100492.09;;;3.88;63.17
51031;BME280;37058;41.442;23.240;2023-04-07T04:25:35;100494.16;;;4.12;62.47
51031;BME280;37058;41.442;23.240;2023-04-07T04:28:04;100506.81;;;4.45;61.29
51031;BME280;37058;41.442;23.240;2023-04-07T04:30:30;100503.63;;;4.75;60.68
51031;BME280;37058;41.442;23.240;2023-04-07T04:32:56;100503.06;;;5.25;59.05
51031;BME280;37058;41.442;23.240;2023-04-07T04:35:22;100512.88;;;5.89;56.43
51031;BME280;37058;41.442;23.240;2023-04-07T04:37:48;100509.88;;;6.54;54.43
51031;BME280;37058;41.442;23.240;2023-04-07T04:40:15;100507.34;;;7.14;52.42
51031;BME280;37058;41.442;23.240;2023-04-07T04:42:41;100509.53;;;7.96;50.43
51031;BME280;37058;41.442;23.240;2023-04-07T04:45:07;100507.06;;;9.13;47.71
51031;BME280;37058;41.442;23.240;2023-04-07T04:47:33;100515.72;;;9.79;45.66
51031;BME280;37058;41.442;23.240;2023-04-07T04:49:59;100519.69;;;10.89;43.35
51031;BME280;37058;41.442;23.240;2023-04-07T04:52:25;100517.53;;;11.57;41.22
51031;BME280;37058;41.442;23.240;2023-04-07T04:54:52;100518.84;;;12.78;38.85
51031;BME280;37058;41.442;23.240;2023-04-07T04:57:18;100518.72;;;13.63;35.81
51031;BME280;37058;41.442;23.240;2023-04-07T04:59:44;100522.00;;;12.97;36.44
51031;BME280;37058;41.442;23.240;2023-04-07T05:02:10;100527.84;;;12.31;36.87
51031;BME280;37058;41.442;23.240;2023-04-07T05:04:36;100534.19;;;11.56;38.54
51031;BME280;37058;41.442;23.240;2023-04-07T05:07:02;100534.06;;;11.23;39.77
51031;BME280;37058;41.442;23.240;2023-04-07T05:09:28;100535.69;;;10.80;40.18
51031;BME280;37058;41.442;23.240;2023-04-07T05:11:54;100551.88;;;10.48;41.21
51031;BME280;37058;41.442;23.240;2023-04-07T05:14:20;100546.13;;;10.16;41.67
51031;BME280;37058;41.442;23.240;2023-04-07T05:16:46;100538.50;;;10.01;42.54
51031;BME280;37058;41.442;23.240;2023-04-07T05:19:12;100548.72;;;9.94;43.00
51031;BME280;37058;41.442;23.240;2023-04-07T05:21:38;100545.41;;;9.92;43.23
51031;BME280;37058;41.442;23.240;2023-04-07T05:24:04;100544.31;;;9.76;43.14
51031;BME280;37058;41.442;23.240;2023-04-07T05:26:30;100553.81;;;9.73;43.54
51031;BME280;37058;41.442;23.240;2023-04-07T05:28:56;100550.56;;;9.76;44.16
51031;BME280;37058;41.442;23.240;2023-04-07T05:31:22;100556.44;;;9.68;44.71
51031;BME280;37058;41.442;23.240;2023-04-07T05:33:48;100554.59;;;9.57;44.78
51031;BME280;37058;41.442;23.240;2023-04-07T05:36:14;100556.56;;;9.62;45.14
51031;BME280;37058;41.442;23.240;2023-04-07T05:38:40;100556.53;;;9.73;44.47
51031;BME280;37058;41.442;23.240;2023-04-07T05:41:06;100560.38;;;9.89;44.52
51031;BME280;37058;41.442;23.240;2023-04-07T05:43:32;100566.72;;;10.24;43.30
51031;BME280;37058;41.442;23.240;2023-04-07T05:45:58;100564.09;;;10.46;43.01
51031;BME280;37058;41.442;23.240;2023-04-07T05:48:24;100570.81;;;10.72;42.29
51031;BME280;37058;41.442;23.240;2023-04-07T05:50:50;100565.34;;;10.72;41.50
51031;BME280;37058;41.442;23.240;2023-04-07T05:53:15;100561.44;;;10.84;41.61
51031;BME280;37058;41.442;23.240;2023-04-07T05:55:42;100565.34;;;10.72;41.47
51031;BME280;37058;41.442;23.240;2023-04-07T05:58:08;100568.81;;;10.84;41.24
51031;BME280;37058;41.442;23.240;2023-04-07T06:00:34;100567.88;;;10.95;40.64
51031;BME280;37058;41.442;23.240;2023-04-07T06:03:00;100569.25;;;11.15;40.48
51031;BME280;37058;41.442;23.240;2023-04-07T06:05:26;100566.91;;;11.45;40.59
51031;BME280;37058;41.442;23.240;2023-04-07T06:07:52;100562.88;;;11.53;40.55
51031;BME280;37058;41.442;23.240;2023-04-07T06:10:19;100569.19;;;11.54;39.73
51031;BME280;37058;41.442;23.240;2023-04-07T06:12:45;100568.78;;;11.89;39.36
51031;BME280;37058;41.442;23.240;2023-04-07T06:15:11;100562.94;;;12.07;39.18
51031;BME280;37058;41.442;23.240;2023-04-07T06:17:37;100572.25;;;12.06;39.18
51031;BME280;37058;41.442;23.240;2023-04-07T06:20:03;100573.16;;;12.17;38.76
51031;BME280;37058;41.442;23.240;2023-04-07T06:22:29;100570.19;;;12.19;38.82
51031;BME280;37058;41.442;23.240;2023-04-07T06:24:55;100565.19;;;12.43;38.54
51031;BME280;37058;41.442;23.240;2023-04-07T06:27:21;100573.72;;;12.46;38.47
51031;BME280;37058;41.442;23.240;2023-04-07T06:29:47;100573.09;;;12.71;38.43
51031;BME280;37058;41.442;23.240;2023-04-07T06:32:12;100568.22;;;12.84;37.47
51031;BME280;37058;41.442;23.240;2023-04-07T06:34:38;100558.88;;;13.22;37.02
51031;BME280;37058;41.442;23.240;2023-04-07T06:37:04;100565.50;;;13.31;36.97
51031;BME280;37058;41.442;23.240;2023-04-07T06:39:31;100566.00;;;14.01;35.83
51031;BME280;37058;41.442;23.240;2023-04-07T06:41:57;100560.56;;;18.87;29.83
51031;BME280;37058;41.442;23.240;2023-04-07T06:44:23;100550.78;;;24.43;22.81
51031;BME280;37058;41.442;23.240;2023-04-07T06:46:49;100543.72;;;27.50;19.40
51031;BME280;37058;41.442;23.240;2023-04-07T06:49:18;100545.53;;;29.41;16.61
51031;BME280;37058;41.442;23.240;2023-04-07T06:51:44;100549.50;;;29.89;15.66
51031;BME280;37058;41.442;23.240;2023-04-07T06:54:10;100534.41;;;31.65;14.87
51031;BME280;37058;41.442;23.240;2023-04-07T06:56:41;100531.94;;;32.33;14.20
51031;BME280;37058;41.442;23.240;2023-04-07T06:59:07;100534.16;;;28.87;16.06
51031;BME280;37058;41.442;23.240;2023-04-07T07:01:33;100528.75;;;25.45;19.24
51031;BME280;37058;41.442;23.240;2023-04-07T07:03:59;100528.13;;;22.76;20.66
51031;BME280;37058;41.442;23.240;2023-04-07T07:06:26;100531.78;;;20.83;22.06
51031;BME280;37058;41.442;23.240;2023-04-07T07:08:52;100541.09;;;19.61;23.78
51031;BME280;37058;41.442;23.240;2023-04-07T07:11:18;100539.16;;;17.70;25.25
51031;BME280;37058;41.442;23.240;2023-04-07T07:13:45;100532.56;;;16.69;27.12
51031;BME280;37058;41.442;23.240;2023-04-07T07:16:12;100544.63;;;16.10;28.03
51031;BME280;37058;41.442;23.240;2023-04-07T07:18:38;100539.16;;;15.55;29.18
51031;BME280;37058;41.442;23.240;2023-04-07T07:21:04;100532.47;;;15.02;30.07
51031;BME280;37058;41.442;23.240;2023-04-07T07:23:30;100535.28;;;14.25;30.42
51031;BME280;37058;41.442;23.240;2023-04-07T07:25:56;100535.81;;;14.01;30.63
51031;BME280;37058;41.442;23.240;2023-04-07T07:28:22;100534.69;;;13.87;31.95
51031;BME280;37058;41.442;23.240;2023-04-07T07:30:48;100530.06;;;13.98;32.29
51031;BME280;37058;41.442;23.240;2023-04-07T07:33:14;100529.72;;;13.79;32.22
51031;BME280;37058;41.442;23.240;2023-04-07T07:35:40;100537.03;;;13.42;30.90
51031;BME280;37058;41.442;23.240;2023-04-07T07:38:06;100536.13;;;13.27;30.91
51031;BME280;37058;41.442;23.240;2023-04-07T07:40:32;100530.97;;;12.88;31.79
51031;BME280;37058;41.442;23.240;2023-04-07T07:43:00;100534.88;;;12.54;31.75
51031;BME280;37058;41.442;23.240;2023-04-07T07:45:26;100536.28;;;12.25;32.04
51031;BME280;37058;41.442;23.240;2023-04-07T07:47:52;100533.97;;;12.44;32.29
51031;BME280;37058;41.442;23.240;2023-04-07T07:50:18;100533.97;;;12.44;32.24
51031;BME280;37058;41.442;23.240;2023-04-07T07:52:44;100531.84;;;12.51;32.39
51031;BME280;37058;41.442;23.240;2023-04-07T07:55:10;100531.00;;;12.50;31.94
51031;BME280;37058;41.442;23.240;2023-04-07T07:57:36;100527.81;;;12.64;31.72
51031;BME280;37058;41.442;23.240;2023-04-07T08:00:03;100528.28;;;12.55;31.82
51031;BME280;37058;41.442;23.240;2023-04-07T08:02:29;100530.22;;;12.55;31.68
51031;BME280;37058;41.442;23.240;2023-04-07T08:04:59;100536.88;;;12.64;29.66
51031;BME280;37058;41.442;23.240;2023-04-07T08:07:25;100533.03;;;12.65;29.72
51031;BME280;37058;41.442;23.240;2023-04-07T08:09:52;100536.91;;;12.69;28.59
51031;BME280;37058;41.442;23.240;2023-04-07T08:12:18;100528.03;;;12.57;28.43
51031;BME280;37058;41.442;23.240;2023-04-07T08:14:44;100529.66;;;12.53;28.50
51031;BME280;37058;41.442;23.240;2023-04-07T08:17:10;100526.91;;;12.53;29.46
51031;BME280;37058;41.442;23.240;2023-04-07T08:19:37;100524.50;;;12.24;29.88
51031;BME280;37058;41.442;23.240;2023-04-07T08:22:02;100515.06;;;12.10;30.96
51031;BME280;37058;41.442;23.240;2023-04-07T08:24:28;100522.19;;;12.11;32.30
51031;BME280;37058;41.442;23.240;2023-04-07T08:26:54;100515.19;;;11.93;31.17
51031;BME280;37058;41.442;23.240;2023-04-07T08:29:21;100513.97;;;11.84;31.40
51031;BME280;37058;41.442;23.240;2023-04-07T08:31:46;100514.97;;;11.73;31.48
51031;BME280;37058;41.442;23.240;2023-04-07T08:34:12;100506.66;;;11.89;31.53
51031;BME280;37058;41.442;23.240;2023-04-07T08:36:38;100515.44;;;11.91;31.55
51031;BME280;37058;41.442;23.240;2023-04-07T08:39:04;100512.22;;;12.00;31.21
51031;BME280;37058;41.442;23.240;2023-04-07T08:41:39;100503.19;;;11.99;29.80
51031;BME280;37058;41.442;23.240;2023-04-07T08:44:06;100496.75;;;12.10;29.33
51031;BME280;37058;41.442;23.240;2023-04-07T08:46:34;100498.09;;;12.08;29.29
51031;BME280;37058;41.442;23.240;2023-04-07T08:49:10;100499.53;;;12.16;29.12
51031;BME280;37058;41.442;23.240;2023-04-07T08:51:44;100491.06;;;12.22;29.59
51031;BME280;37058;41.442;23.240;2023-04-07T08:54:16;100494.16;;;12.31;29.70
51031;BME280;37058;41.442;23.240;2023-04-07T08:56:47;100488.50;;;12.48;29.45
51031;BME280;37058;41.442;23.240;2023-04-07T08:59:15;100481.38;;;12.42;29.36
51031;BME280;37058;41.442;23.240;2023-04-07T09:01:43;100473.81;;;12.59;29.83
51031;BME280;37058;41.442;23.240;2023-04-07T09:04:10;100472.53;;;12.77;29.28
51031;BME280;37058;41.442;23.240;2023-04-07T09:06:37;100472.88;;;12.91;29.94
51031;BME280;37058;41.442;23.240;2023-04-07T09:09:04;100469.41;;;13.11;29.58
51031;BME280;37058;41.442;23.240;2023-04-07T09:11:39;100468.34;;;13.17;29.25
51031;BME280;37058;41.442;23.240;2023-04-07T09:14:05;100472.44;;;13.14;30.88
51031;BME280;37058;41.442;23.240;2023-04-07T09:16:32;100474.63;;;13.12;29.64
51031;BME280;37058;41.442;23.240;2023-04-07T09:18:58;100477.34;;;13.02;30.05
51031;BME280;37058;41.442;23.240;2023-04-07T09:21:24;100465.59;;;13.12;30.31
51031;BME280;37058;41.442;23.240;2023-04-07T09:23:51;100457.06;;;13.08;30.00
51031;BME280;37058;41.442;23.240;2023-04-07T09:28:50;100465.97;;;13.36;30.22
51031;BME280;37058;41.442;23.240;2023-04-07T09:31:16;100451.72;;;13.49;29.98
51031;BME280;37058;41.442;23.240;2023-04-07T09:33:42;100456.16;;;13.60;30.17
51031;BME280;37058;41.442;23.240;2023-04-07T09:36:08;100449.28;;;13.63;29.27
51031;BME280;37058;41.442;23.240;2023-04-07T09:38:37;100456.16;;;13.60;29.16
51031;BME280;37058;41.442;23.240;2023-04-07T09:41:15;100447.91;;;13.60;28.55
51031;BME280;37058;41.442;23.240;2023-04-07T09:43:44;100448.72;;;13.61;28.88
51031;BME280;37058;41.442;23.240;2023-04-07T09:46:18;100446.25;;;13.64;28.70
51031;BME280;37058;41.442;23.240;2023-04-07T09:48:45;100450.13;;;13.79;29.46
51031;BME280;37058;41.442;23.240;2023-04-07T09:51:17;100450.69;;;13.81;28.78
51031;BME280;37058;41.442;23.240;2023-04-07T09:53:50;100449.06;;;13.85;29.53
51031;BME280;37058;41.442;23.240;2023-04-07T09:56:19;100449.31;;;13.99;29.16
51031;BME280;37058;41.442;23.240;2023-04-07T09:58:49;100451.50;;;14.12;28.17
51031;BME280;37058;41.442;23.240;2023-04-07T10:01:20;100444.63;;;14.15;27.52
51031;BME280;37058;41.442;23.240;2023-04-07T10:03:48;100443.56;;;14.00;27.90
51031;BME280;37058;41.442;23.240;2023-04-07T10:06:16;100445.19;;;13.86;28.00
51031;BME280;37058;41.442;23.240;2023-04-07T10:08:42;100442.72;;;13.84;28.87
51031;BME280;37058;41.442;23.240;2023-04-07T10:11:09;100449.56;;;13.97;29.12
51031;BME280;37058;41.442;23.240;2023-04-07T10:13:38;100446.00;;;14.02;28.01
51031;BME280;37058;41.442;23.240;2023-04-07T10:16:06;100443.56;;;14.00;28.89
51031;BME280;37058;41.442;23.240;2023-04-07T10:18:35;100432.28;;;13.97;29.01
51031;BME280;37058;41.442;23.240;2023-04-07T10:21:06;100439.69;;;13.96;28.98
51031;BME280;37058;41.442;23.240;2023-04-07T10:26:05;100433.09;;;14.02;29.07
51031;BME280;37058;41.442;23.240;2023-04-07T10:28:33;100430.09;;;14.14;28.83
51031;BME280;37058;41.442;23.240;2023-04-07T10:31:02;100424.84;;;14.23;28.21
51031;BME280;37058;41.442;23.240;2023-04-07T10:33:49;100430.88;;;14.25;28.98
51031;BME280;37058;41.442;23.240;2023-04-07T10:36:17;100417.97;;;14.20;28.36
51031;BME280;37058;41.442;23.240;2023-04-07T10:39:18;100418.00;;;14.10;27.74
51031;BME280;37058;41.442;23.240;2023-04-07T10:41:45;100417.47;;;13.93;29.50
51031;BME280;37058;41.442;23.240;2023-04-07T10:47:04;100415.00;;;14.01;29.37
51031;BME280;37058;41.442;23.240;2023-04-07T10:49:32;100408.38;;;14.02;28.81
51031;BME280;37058;41.442;23.240;2023-04-07T10:54:38;100401.25;;;13.86;28.17
51031;BME280;37058;41.442;23.240;2023-04-07T10:57:07;100405.09;;;13.80;27.07
51031;BME280;37058;41.442;23.240;2023-04-07T10:59:36;100399.63;;;13.85;28.68
51031;BME280;37058;41.442;23.240;2023-04-07T11:04:45;100392.78;;;13.87;27.77
51031;BME280;37058;41.442;23.240;2023-04-07T11:07:13;100388.66;;;13.90;27.88
51031;BME280;37058;41.442;23.240;2023-04-07T11:09:41;100386.97;;;14.04;28.67
51031;BME280;37058;41.442;23.240;2023-04-07T11:12:07;100388.88;;;14.19;28.46
51031;BME280;37058;41.442;23.240;2023-04-07T11:14:34;100386.38;;;14.28;28.77
51031;BME280;37058;41.442;23.240;2023-04-07T11:17:02;100384.72;;;14.37;28.02
51031;BME280;37058;41.442;23.240;2023-04-07T11:19:29;100382.50;;;14.39;28.33
51031;BME280;37058;41.442;23.240;2023-04-07T11:22:18;100373.72;;;14.37;27.53
51031;BME280;37058;41.442;23.240;2023-04-07T11:24:45;100381.44;;;14.30;28.43
51031;BME280;37058;41.442;23.240;2023-04-07T11:27:15;100375.97;;;14.20;28.52
51031;BME280;37058;41.442;23.240;2023-04-07T11:29:41;100368.84;;;14.14;28.23
51031;BME280;37058;41.442;23.240;2023-04-07T11:32:08;100366.66;;;14.16;28.43
51031;BME280;37058;41.442;23.240;2023-04-07T11:34:35;100369.41;;;14.16;28.43
51031;BME280;37058;41.442;23.240;2023-04-07T11:37:24;100360.84;;;14.17;28.59
51031;BME280;37058;41.442;23.240;2023-04-07T11:39:56;100361.41;;;14.24;28.48
51031;BME280;37058;41.442;23.240;2023-04-07T11:42:37;100362.72;;;14.37;28.37
51031;BME280;37058;41.442;23.240;2023-04-07T11:45:05;100354.75;;;14.46;28.03
51031;BME280;37058;41.442;23.240;2023-04-07T11:47:36;100349.50;;;14.60;28.67
51031;BME280;37058;41.442;23.240;2023-04-07T11:50:02;100347.81;;;14.69;28.29
51031;BME280;37058;41.442;23.240;2023-04-07T11:52:39;100357.94;;;14.73;28.38
51031;BME280;37058;41.442;23.240;2023-04-07T11:55:06;100352.69;;;14.82;28.40
51031;BME280;37058;41.442;23.240;2023-04-07T11:57:32;100347.81;;;14.74;28.71
51031;BME280;37058;41.442;23.240;2023-04-07T12:00:10;100352.75;;;14.72;28.79
51031;BME280;37058;41.442;23.240;2023-04-07T12:02:36;100341.47;;;14.68;28.63
51031;BME280;37058;41.442;23.240;2023-04-07T12:05:03;100336.84;;;14.64;28.87
51031;BME280;37058;41.442;23.240;2023-04-07T12:07:30;100339.88;;;14.52;29.41
51031;BME280;37058;41.442;23.240;2023-04-07T12:09:56;100331.91;;;14.50;28.87
51031;BME280;37058;41.442;23.240;2023-04-07T12:12:29;100334.41;;;14.47;29.06
51031;BME280;37058;41.442;23.240;2023-04-07T12:14:57;100328.69;;;14.38;28.30
51031;BME280;37058;41.442;23.240;2023-04-07T12:17:25;100327.00;;;14.42;28.44
51031;BME280;37058;41.442;23.240;2023-04-07T12:19:52;100330.81;;;14.51;28.02
51031;BME280;37058;41.442;23.240;2023-04-07T12:22:18;100331.91;;;14.61;28.09
51031;BME280;37058;41.442;23.240;2023-04-07T12:24:44;100324.72;;;14.70;28.96
51031;BME280;37058;41.442;23.240;2023-04-07T12:27:11;100332.38;;;14.78;27.76
51031;BME280;37058;41.442;23.240;2023-04-07T12:29:36;100329.28;;;14.90;28.22
51031;BME280;37058;41.442;23.240;2023-04-07T12:32:03;100325.13;;;14.98;27.91
51031;BME280;37058;41.442;23.240;2023-04-07T12:34:29;100327.00;;;15.07;29.03
51031;BME280;37058;41.442;23.240;2023-04-07T12:36:55;100322.81;;;15.15;28.97
51031;BME280;37058;41.442;23.240;2023-04-07T12:39:21;100316.75;;;15.18;28.23
51031;BME280;37058;41.442;23.240;2023-04-07T12:41:47;100318.91;;;15.21;28.77
51031;BME280;37058;41.442;23.240;2023-04-07T12:44:14;100314.50;;;15.25;28.36
51031;BME280;37058;41.442;23.240;2023-04-07T12:46:40;100311.66;;;15.35;28.70
51031;BME280;37058;41.442;23.240;2023-04-07T12:49:07;100310.53;;;15.36;28.89
51031;BME280;37058;41.442;23.240;2023-04-07T12:51:33;100302.81;;;15.38;27.44
51031;BME280;37058;41.442;23.240;2023-04-07T12:54:00;100301.78;;;15.34;27.41
51031;BME280;37058;41.442;23.240;2023-04-07T12:56:26;100305.53;;;15.44;28.93
51031;BME280;37058;41.442;23.240;2023-04-07T12:58:55;100301.06;;;15.53;28.69
51031;BME280;37058;41.442;23.240;2023-04-07T13:01:21;100300.97;;;15.63;29.20
51031;BME280;37058;41.442;23.240;2023-04-07T13:03:47;100304.78;;;15.72;28.34
51031;BME280;37058;41.442;23.240;2023-04-07T13:06:12;100290.38;;;15.80;28.40
51031;BME280;37058;41.442;23.240;2023-04-07T13:08:39;100294.66;;;15.92;27.26
51031;BME280;37058;41.442;23.240;2023-04-07T13:11:06;100285.31;;;15.93;26.93